sensor_id;sensor_type;location;lat;lon;timestamp;pressure;altitude;pressure_sealevel;temperature;humidity
39265;BME280;42646;51.910;7.724;2023-04-25T00:00:35;100241.19;;;6.89;100.00
39265;BME280;42646;51.910;7.724;2023-04-25T00:03:03;100240.22;;;6.90;100.00
39265;BME280;42646;51.910;7.724;2023-04-25T00:05:32;100239.38;;;6.89;100.00
39265;BME280;42646;51.910;7.724;2023-04-25T00:08:00;100235.75;;;6.90;100.00
39265;BME280;42646;51.910;7.724;2023-04-25T00:10:28;100237.56;;;6.90;100.00
39265;BME280;42646;51.910;7.724;2023-04-25T00:12:56;100248.84;;;6.92;100.00
39265;BME280;42646;51.910;7.724;2023-04-25T00:15:25;100245.50;;;6.90;100.00
39265;BME280;42646;51.910;7.724;2023-04-25T00:17:58;100248.63;;;6.95;100.00
39265;BME280;42646;51.910;7.724;2023-04-25T00:20:26;100246.34;;;6.90;100.00
39265;BME280;42646;51.910;7.724;2023-04-25T00:22:54;100246.94;;;6.94;100.00
39265;BME280;42646;51.910;7.724;2023-04-25T00:25:22;100248.84;;;6.92;100.00
39265;BME280;42646;51.910;7.724;2023-04-25T00:27:50;100254.28;;;6.90;100.00
39265;BME280;42646;51.910;7.724;2023-04-25T00:30:18;100260.25;;;6.92;100.00
39265;BME280;42646;51.910;7.724;2023-04-25T00:32:45;100258.44;;;6.93;100.00
39265;BME280;42646;51.910;7.724;2023-04-25T00:35:15;100259.44;;;6.92;100.00
39265;BME280;42646;51.910;7.724;2023-04-25T00:37:43;100257.75;;;6.91;100.00
39265;BME280;42646;51.910;7.724;2023-04-25T00:40:13;100253.44;;;6.90;100.00
39265;BME280;42646;51.910;7.724;2023-04-25T00:42:41;100254.13;;;6.92;100.00
39265;BME280;42646;51.910;7.724;2023-04-25T00:45:12;100256.06;;;6.90;100.00
39265;BME280;42646;51.910;7.724;2023-04-25T00:47:41;100261.09;;;6.93;100.00
39265;BME280;42646;51.910;7.724;2023-04-25T00:50:10;100253.16;;;6.93;100.00
39265;BME280;42646;51.910;7.724;2023-04-25T00:52:40;100255.81;;;6.93;100.00
39265;BME280;42646;51.910;7.724;2023-04-25T00:55:09;100252.31;;;6.92;100.00
39265;BME280;42646;51.910;7.724;2023-04-25T00:57:38;100255.81;;;6.93;100.00
39265;BME280;42646;51.910;7.724;2023-04-25T01:00:08;100255.81;;;6.93;100.00
39265;BME280;42646;51.910;7.724;2023-04-25T01:02:38;100253.91;;;6.95;100.00
39265;BME280;42646;51.910;7.724;2023-04-25T01:05:07;100256.41;;;6.96;100.00
39265;BME280;42646;51.910;7.724;2023-04-25T01:07:36;100245.13;;;6.94;100.00
39265;BME280;42646;51.910;7.724;2023-04-25T01:10:06;100251.25;;;6.95;100.00
39265;BME280;42646;51.910;7.724;2023-04-25T01:12:34;100251.97;;;6.97;100.00
39265;BME280;42646;51.910;7.724;2023-04-25T01:15:02;100259.19;;;6.95;100.00
39265;BME280;42646;51.910;7.724;2023-04-25T01:17:30;100254.75;;;6.95;100.00
39265;BME280;42646;51.910;7.724;2023-04-25T01:20:02;100255.44;;;6.97;100.00
39265;BME280;42646;51.910;7.724;2023-04-25T01:22:32;100253.91;;;6.95;100.00
39265;BME280;42646;51.910;7.724;2023-04-25T01:25:00;100265.31;;;6.95;100.00
39265;BME280;42646;51.910;7.724;2023-04-25T01:27:30;100258.22;;;6.96;100.00
39265;BME280;42646;51.910;7.724;2023-04-25T01:29:59;100259.06;;;6.96;100.00
39265;BME280;42646;51.910;7.724;2023-04-25T01:32:28;100262.81;;;6.94;100.00
39265;BME280;42646;51.910;7.724;2023-04-25T01:34:58;100261.84;;;6.95;100.00
39265;BME280;42646;51.910;7.724;2023-04-25T01:37:25;100268.81;;;6.96;100.00
39265;BME280;42646;51.910;7.724;2023-04-25T01:39:55;100275.06;;;6.95;100.00
39265;BME280;42646;51.910;7.724;2023-04-25T01:42:23;100275.06;;;6.95;100.00
39265;BME280;42646;51.910;7.724;2023-04-25T01:44:52;100278.41;;;6.97;100.00
39265;BME280;42646;51.910;7.724;2023-04-25T01:47:19;100277.44;;;6.98;100.00
39265;BME280;42646;51.910;7.724;2023-04-25T01:49:47;100273.13;;;6.97;100.00
39265;BME280;42646;51.910;7.724;2023-04-25T01:52:15;100273.25;;;6.95;100.00
39265;BME280;42646;51.910;7.724;2023-04-25T01:54:43;100279.94;;;7.00;100.00
39265;BME280;42646;51.910;7.724;2023-04-25T01:57:15;100281.19;;;6.95;100.00
39265;BME280;42646;51.910;7.724;2023-04-25T01:59:44;100276.72;;;6.96;100.00
39265;BME280;42646;51.910;7.724;2023-04-25T02:02:20;100284.53;;;6.97;100.00
39265;BME280;42646;51.910;7.724;2023-04-25T02:04:48;100289.81;;;6.97;100.00
39265;BME280;42646;51.910;7.724;2023-04-25T02:07:21;100294.88;;;7.01;100.00
39265;BME280;42646;51.910;7.724;2023-04-25T02:09:51;100293.31;;;6.98;100.00
39265;BME280;42646;51.910;7.724;2023-04-25T02:12:23;100289.81;;;6.97;100.00
39265;BME280;42646;51.910;7.724;2023-04-25T02:15:13;100286.34;;;6.97;100.00
39265;BME280;42646;51.910;7.724;2023-04-25T02:17:50;100291.03;;;6.93;100.00
39265;BME280;42646;51.910;7.724;2023-04-25T02:20:21;100304.38;;;6.92;100.00
39265;BME280;42646;51.910;7.724;2023-04-25T02:22:50;100292.84;;;6.93;100.00
39265;BME280;42646;51.910;7.724;2023-04-25T02:25:20;100301.88;;;6.90;100.00
39265;BME280;42646;51.910;7.724;2023-04-25T02:27:49;100296.44;;;6.92;100.00
39265;BME280;42646;51.910;7.724;2023-04-25T02:30:17;100302.84;;;6.89;100.00
39265;BME280;42646;51.910;7.724;2023-04-25T02:32:47;100299.44;;;6.87;100.00
39265;BME280;42646;51.910;7.724;2023-04-25T02:35:15;100306.69;;;6.85;100.00
39265;BME280;42646;51.910;7.724;2023-04-25T02:37:45;100311.13;;;6.85;100.00
39265;BME280;42646;51.910;7.724;2023-04-25T02:40:12;100318.09;;;6.86;100.00
39265;BME280;42646;51.910;7.724;2023-04-25T02:42:40;100309.94;;;6.89;100.00
39265;BME280;42646;51.910;7.724;2023-04-25T02:45:10;100313.06;;;6.83;100.00
39265;BME280;42646;51.910;7.724;2023-04-25T02:47:41;100317.50;;;6.82;100.00
39265;BME280;42646;51.910;7.724;2023-04-25T02:50:10;100318.22;;;6.84;100.00
39265;BME280;42646;51.910;7.724;2023-04-25T02:52:41;100317.13;;;6.87;100.00
39265;BME280;42646;51.910;7.724;2023-04-25T02:55:15;100328.53;;;6.87;100.00
39265;BME280;42646;51.910;7.724;2023-04-25T02:57:44;100331.44;;;6.84;100.00
39265;BME280;42646;51.910;7.724;2023-04-25T03:00:30;100336.97;;;6.81;100.00
39265;BME280;42646;51.910;7.724;2023-04-25T03:02:59;100335.06;;;6.83;100.00
39265;BME280;42646;51.910;7.724;2023-04-25T03:05:28;100343.56;;;6.87;100.00
39265;BME280;42646;51.910;7.724;2023-04-25T03:07:55;100339.97;;;6.88;100.00
39265;BME280;42646;51.910;7.724;2023-04-25T03:10:26;100337.22;;;6.89;100.00
39265;BME280;42646;51.910;7.724;2023-04-25T03:12:57;100338.03;;;6.90;100.00
39265;BME280;42646;51.910;7.724;2023-04-25T03:15:25;100345.97;;;6.90;100.00
39265;BME280;42646;51.910;7.724;2023-04-25T03:17:54;100351.63;;;6.85;100.00
39265;BME280;42646;51.910;7.724;2023-04-25T03:20:23;100357.75;;;6.86;100.00
39265;BME280;42646;51.910;7.724;2023-04-25T03:22:51;100352.81;;;6.81;100.00
39265;BME280;42646;51.910;7.724;2023-04-25T03:25:19;100354.63;;;6.81;100.00
39265;BME280;42646;51.910;7.724;2023-04-25T03:27:47;100351.28;;;6.79;100.00
39265;BME280;42646;51.910;7.724;2023-04-25T03:30:15;100352.25;;;6.78;100.00
39265;BME280;42646;51.910;7.724;2023-04-25T03:32:43;100363.03;;;6.75;100.00
39265;BME280;42646;51.910;7.724;2023-04-25T03:35:19;100368.47;;;6.73;100.00
39265;BME280;42646;51.910;7.724;2023-04-25T03:37:47;100371.94;;;6.74;100.00
39265;BME280;42646;51.910;7.724;2023-04-25T03:40:22;100364.84;;;6.74;100.00
39265;BME280;42646;51.910;7.724;2023-04-25T03:43:17;100374.47;;;6.75;100.00
39265;BME280;42646;51.910;7.724;2023-04-25T03:46:12;100372.91;;;6.73;100.00
39265;BME280;42646;51.910;7.724;2023-04-25T03:48:41;100374.72;;;6.72;100.00
39265;BME280;42646;51.910;7.724;2023-04-25T03:51:13;100377.34;;;6.72;100.00
39265;BME280;42646;51.910;7.724;2023-04-25T03:53:43;100372.06;;;6.72;100.00
39265;BME280;42646;51.910;7.724;2023-04-25T03:56:39;100374.00;;;6.70;100.00
39265;BME280;42646;51.910;7.724;2023-04-25T03:59:16;100378.41;;;6.69;100.00
39265;BME280;42646;51.910;7.724;2023-04-25T04:01:44;100382.03;;;6.68;100.00
39265;BME280;42646;51.910;7.724;2023-04-25T04:04:12;100383.00;;;6.67;100.00
39265;BME280;42646;51.910;7.724;2023-04-25T04:06:41;100384.81;;;6.67;100.00
39265;BME280;42646;51.910;7.724;2023-04-25T04:09:19;100390.22;;;6.65;100.00
39265;BME280;42646;51.910;7.724;2023-04-25T04:11:46;100385.16;;;6.62;100.00
39265;BME280;42646;51.910;7.724;2023-04-25T04:14:18;100387.78;;;6.62;100.00
39265;BME280;42646;51.910;7.724;2023-04-25T04:17:12;100395.84;;;6.61;100.00
39265;BME280;42646;51.910;7.724;2023-04-25T04:19:39;100394.19;;;6.60;100.00
39265;BME280;42646;51.910;7.724;2023-04-25T04:22:18;100399.59;;;6.58;100.00
39265;BME280;42646;51.910;7.724;2023-04-25T04:24:51;100403.44;;;6.54;100.00
39265;BME280;42646;51.910;7.724;2023-04-25T04:27:39;100405.22;;;6.54;100.00
39265;BME280;42646;51.910;7.724;2023-04-25T04:30:23;100415.06;;;6.52;100.00
39265;BME280;42646;51.910;7.724;2023-04-25T04:32:57;100409.78;;;6.52;100.00
39265;BME280;42646;51.910;7.724;2023-04-25T04:35:25;100409.19;;;6.48;100.00
39265;BME280;42646;51.910;7.724;2023-04-25T04:37:54;100402.09;;;6.49;100.00
39265;BME280;42646;51.910;7.724;2023-04-25T04:40:26;100403.91;;;6.48;100.00
39265;BME280;42646;51.910;7.724;2023-04-25T04:43:06;100406.53;;;6.48;100.00
39265;BME280;42646;51.910;7.724;2023-04-25T04:45:38;100411.09;;;6.46;100.00
39265;BME280;42646;51.910;7.724;2023-04-25T04:48:31;100422.28;;;6.50;100.00
39265;BME280;42646;51.910;7.724;2023-04-25T04:51:15;100422.63;;;6.45;100.00
39265;BME280;42646;51.910;7.724;2023-04-25T04:53:53;100417.22;;;6.47;100.00
39265;BME280;42646;51.910;7.724;2023-04-25T04:56:47;100426.09;;;6.46;100.00
39265;BME280;42646;51.910;7.724;2023-04-25T04:59:44;100425.25;;;6.45;100.00
39265;BME280;42646;51.910;7.724;2023-04-25T05:02:30;100430.53;;;6.45;100.00
39265;BME280;42646;51.910;7.724;2023-04-25T05:05:22;100433.94;;;6.47;100.00
39265;BME280;42646;51.910;7.724;2023-04-25T05:07:58;100442.69;;;6.48;100.00
39265;BME280;42646;51.910;7.724;2023-04-25T05:10:50;100444.25;;;6.50;100.00
39265;BME280;42646;51.910;7.724;2023-04-25T05:13:56;100442.69;;;6.48;100.00
39265;BME280;42646;51.910;7.724;2023-04-25T05:16:53;100443.53;;;6.48;100.00
39265;BME280;42646;51.910;7.724;2023-04-25T05:19:46;100445.34;;;6.48;100.00
39265;BME280;42646;51.910;7.724;2023-04-25T05:22:39;100450.63;;;6.48;100.00
39265;BME280;42646;51.910;7.724;2023-04-25T05:25:15;100461.19;;;6.48;100.00
39265;BME280;42646;51.910;7.724;2023-04-25T05:28:23;100462.16;;;6.47;100.00
39265;BME280;42646;51.910;7.724;2023-04-25T05:31:07;100460.34;;;6.47;100.00
39265;BME280;42646;51.910;7.724;2023-04-25T05:34:08;100466.94;;;6.41;100.00
39265;BME280;42646;51.910;7.724;2023-04-25T05:36:51;100469.47;;;6.43;100.00
39265;BME280;42646;51.910;7.724;2023-04-25T05:39:20;100468.50;;;6.44;100.00
39265;BME280;42646;51.910;7.724;2023-04-25T05:42:06;100469.97;;;6.48;100.00
39265;BME280;42646;51.910;7.724;2023-04-25T05:44:53;100475.75;;;6.53;100.00
39265;BME280;42646;51.910;7.724;2023-04-25T05:47:35;100477.16;;;6.57;100.00
39265;BME280;42646;51.910;7.724;2023-04-25T05:50:09;100478.47;;;6.52;100.00
39265;BME280;42646;51.910;7.724;2023-04-25T05:52:50;100481.75;;;6.55;100.00
39265;BME280;42646;51.910;7.724;2023-04-25T05:55:27;100492.09;;;6.58;100.00
39265;BME280;42646;51.910;7.724;2023-04-25T05:57:57;100500.50;;;6.63;100.00
39265;BME280;42646;51.910;7.724;2023-04-25T06:00:27;100506.75;;;6.62;100.00
39265;BME280;42646;51.910;7.724;2023-04-25T06:02:55;100503.03;;;6.65;100.00
39265;BME280;42646;51.910;7.724;2023-04-25T06:05:23;100501.13;;;6.67;100.00
39265;BME280;42646;51.910;7.724;2023-04-25T06:07:53;100501.25;;;6.65;100.00
39265;BME280;42646;51.910;7.724;2023-04-25T06:10:24;100513.50;;;6.66;100.00
39265;BME280;42646;51.910;7.724;2023-04-25T06:12:52;100508.91;;;6.68;100.00
39265;BME280;42646;51.910;7.724;2023-04-25T06:15:22;100514.09;;;6.70;100.00
39265;BME280;42646;51.910;7.724;2023-04-25T06:17:55;100512.19;;;6.72;100.00
39265;BME280;42646;51.910;7.724;2023-04-25T06:20:23;100514.56;;;6.75;100.00
39265;BME280;42646;51.910;7.724;2023-04-25T06:22:53;100523.00;;;6.80;100.00
39265;BME280;42646;51.910;7.724;2023-04-25T06:25:31;100523.00;;;6.80;100.00
39265;BME280;42646;51.910;7.724;2023-04-25T06:27:59;100521.81;;;6.84;100.00
39265;BME280;42646;51.910;7.724;2023-04-25T06:30:26;100523.28;;;6.88;100.00
39265;BME280;42646;51.910;7.724;2023-04-25T06:33:01;100534.78;;;6.87;100.00
39265;BME280;42646;51.910;7.724;2023-04-25T06:35:30;100534.69;;;6.89;100.00
39265;BME280;42646;51.910;7.724;2023-04-25T06:37:58;100537.56;;;6.97;99.98
39265;BME280;42646;51.910;7.724;2023-04-25T06:40:26;100532.91;;;7.01;98.84
39265;BME280;42646;51.910;7.724;2023-04-25T06:42:55;100528.56;;;7.00;98.21
39265;BME280;42646;51.910;7.724;2023-04-25T06:45:53;100528.69;;;6.98;97.69
39265;BME280;42646;51.910;7.724;2023-04-25T06:48:23;100537.22;;;7.02;97.18
39265;BME280;42646;51.910;7.724;2023-04-25T06:50:54;100540.59;;;7.04;96.54
39265;BME280;42646;51.910;7.724;2023-04-25T06:53:23;100539.53;;;7.06;96.04
39265;BME280;42646;51.910;7.724;2023-04-25T06:55:57;100538.69;;;7.06;95.64
39265;BME280;42646;51.910;7.724;2023-04-25T06:58:33;100542.75;;;7.10;95.44
39265;BME280;42646;51.910;7.724;2023-04-25T07:01:12;100546.03;;;7.13;95.19
39265;BME280;42646;51.910;7.724;2023-04-25T07:03:41;100548.41;;;7.16;94.55
39265;BME280;42646;51.910;7.724;2023-04-25T07:06:39;100551.31;;;7.25;94.30
39265;BME280;42646;51.910;7.724;2023-04-25T07:09:10;100551.69;;;7.31;94.71
39265;BME280;42646;51.910;7.724;2023-04-25T07:11:44;100556.13;;;7.42;94.45
39265;BME280;42646;51.910;7.724;2023-04-25T07:14:17;100557.47;;;7.47;93.98
39265;BME280;42646;51.910;7.724;2023-04-25T07:16:44;100560.09;;;7.47;92.08
39265;BME280;42646;51.910;7.724;2023-04-25T07:19:14;100565.63;;;7.56;91.84
39265;BME280;42646;51.910;7.724;2023-04-25T07:21:44;100562.38;;;7.52;87.96
39265;BME280;42646;51.910;7.724;2023-04-25T07:24:13;100568.03;;;7.59;87.85
39265;BME280;42646;51.910;7.724;2023-04-25T07:26:44;100578.59;;;7.59;86.84
39265;BME280;42646;51.910;7.724;2023-04-25T07:29:22;100570.31;;;7.52;86.64
39265;BME280;42646;51.910;7.724;2023-04-25T07:31:50;100570.56;;;7.60;86.09
39265;BME280;42646;51.910;7.724;2023-04-25T07:34:21;100578.03;;;7.55;85.35
39265;BME280;42646;51.910;7.724;2023-04-25T07:36:49;100570.44;;;7.62;85.92
39265;BME280;42646;51.910;7.724;2023-04-25T07:39:17;100568.41;;;7.65;86.42
39265;BME280;42646;51.910;7.724;2023-04-25T07:41:45;100565.00;;;7.74;84.76
39265;BME280;42646;51.910;7.724;2023-04-25T07:44:19;100577.28;;;7.75;83.97
39265;BME280;42646;51.910;7.724;2023-04-25T07:46:47;100571.50;;;7.82;83.05
39265;BME280;42646;51.910;7.724;2023-04-25T07:49:15;100578.22;;;7.86;83.43
39265;BME280;42646;51.910;7.724;2023-04-25T07:51:45;100589.19;;;7.92;83.56
39265;BME280;42646;51.910;7.724;2023-04-25T07:54:17;100586.16;;;7.97;83.23
39265;BME280;42646;51.910;7.724;2023-04-25T07:56:51;100585.41;;;8.06;81.65
39265;BME280;42646;51.910;7.724;2023-04-25T07:59:25;100584.69;;;8.04;80.49
39265;BME280;42646;51.910;7.724;2023-04-25T08:02:00;100600.25;;;7.97;80.25
39265;BME280;42646;51.910;7.724;2023-04-25T08:04:30;100600.94;;;8.11;82.55
39265;BME280;42646;51.910;7.724;2023-04-25T08:07:03;100602.22;;;8.27;81.36
39265;BME280;42646;51.910;7.724;2023-04-25T08:09:39;100604.19;;;8.37;81.99
39265;BME280;42646;51.910;7.724;2023-04-25T08:12:18;100609.31;;;8.49;82.30
39265;BME280;42646;51.910;7.724;2023-04-25T08:14:50;100614.31;;;8.64;81.74
39265;BME280;42646;51.910;7.724;2023-04-25T08:17:17;100612.81;;;8.71;79.43
39265;BME280;42646;51.910;7.724;2023-04-25T08:19:48;100617.03;;;8.73;78.29
39265;BME280;42646;51.910;7.724;2023-04-25T08:22:30;100621.88;;;8.68;76.98
39265;BME280;42646;51.910;7.724;2023-04-25T08:25:20;100626.03;;;8.61;77.81
39265;BME280;42646;51.910;7.724;2023-04-25T08:27:48;100623.38;;;8.61;75.68
39265;BME280;42646;51.910;7.724;2023-04-25T08:30:20;100625.75;;;8.64;76.50
39265;BME280;42646;51.910;7.724;2023-04-25T08:32:49;100638.50;;;8.70;75.50
39265;BME280;42646;51.910;7.724;2023-04-25T08:35:26;100626.16;;;8.80;74.13
39265;BME280;42646;51.910;7.724;2023-04-25T08:37:55;100635.91;;;8.91;74.69
39265;BME280;42646;51.910;7.724;2023-04-25T08:40:27;100629.56;;;9.03;75.25
39265;BME280;42646;51.910;7.724;2023-04-25T08:43:01;100638.69;;;9.10;73.05
39265;BME280;42646;51.910;7.724;2023-04-25T08:45:31;100633.28;;;9.01;71.97
39265;BME280;42646;51.910;7.724;2023-04-25T08:48:00;100633.50;;;9.09;72.41
39265;BME280;42646;51.910;7.724;2023-04-25T08:50:29;100639.59;;;9.21;72.70
39265;BME280;42646;51.910;7.724;2023-04-25T08:52:59;100650.91;;;9.44;71.13
39265;BME280;42646;51.910;7.724;2023-04-25T08:55:31;100657.91;;;9.45;71.03
39265;BME280;42646;51.910;7.724;2023-04-25T08:58:01;100658.47;;;9.48;71.42
39265;BME280;42646;51.910;7.724;2023-04-25T09:00:30;100660.41;;;9.46;71.31
39265;BME280;42646;51.910;7.724;2023-04-25T09:02:58;100664.72;;;9.38;70.88
39265;BME280;42646;51.910;7.724;2023-04-25T09:05:30;100669.28;;;9.35;71.36
39265;BME280;42646;51.910;7.724;2023-04-25T09:08:02;100668.00;;;9.30;71.15
39265;BME280;42646;51.910;7.724;2023-04-25T09:10:30;100672.75;;;9.26;70.13
39265;BME280;42646;51.910;7.724;2023-04-25T09:13:05;100679.13;;;9.24;71.33
39265;BME280;42646;51.910;7.724;2023-04-25T09:15:47;100671.72;;;9.39;72.08
39265;BME280;42646;51.910;7.724;2023-04-25T09:18:35;100678.28;;;9.65;68.67
39265;BME280;42646;51.910;7.724;2023-04-25T09:21:08;100677.19;;;9.68;65.93
39265;BME280;42646;51.910;7.724;2023-04-25T09:23:46;100675.91;;;9.62;66.93
39265;BME280;42646;51.910;7.724;2023-04-25T09:26:18;100680.22;;;9.63;66.00
39265;BME280;42646;51.910;7.724;2023-04-25T09:28:47;100685.78;;;9.60;65.48
39265;BME280;42646;51.910;7.724;2023-04-25T09:31:21;100684.41;;;9.66;65.96
39265;BME280;42646;51.910;7.724;2023-04-25T09:33:58;100692.97;;;9.69;66.68
39265;BME280;42646;51.910;7.724;2023-04-25T09:36:34;100692.84;;;9.71;65.21
39265;BME280;42646;51.910;7.724;2023-04-25T09:39:22;100696.75;;;9.67;64.79
39265;BME280;42646;51.910;7.724;2023-04-25T09:41:59;100703.44;;;9.61;62.68
39265;BME280;42646;51.910;7.724;2023-04-25T09:44:27;100699.72;;;9.52;61.59
39265;BME280;42646;51.910;7.724;2023-04-25T09:46:59;100708.91;;;9.48;63.21
39265;BME280;42646;51.910;7.724;2023-04-25T09:49:29;100705.63;;;9.56;64.33
39265;BME280;42646;51.910;7.724;2023-04-25T09:52:13;100704.97;;;9.63;63.93
39265;BME280;42646;51.910;7.724;2023-04-25T09:54:53;100708.53;;;9.74;60.10
39265;BME280;42646;51.910;7.724;2023-04-25T09:57:28;100710.81;;;9.78;59.83
39265;BME280;42646;51.910;7.724;2023-04-25T10:00:01;100712.06;;;9.84;59.45
39265;BME280;42646;51.910;7.724;2023-04-25T10:02:42;100714.47;;;9.87;60.85
39265;BME280;42646;51.910;7.724;2023-04-25T10:05:52;100722.06;;;9.92;59.98
39265;BME280;42646;51.910;7.724;2023-04-25T10:08:22;100719.25;;;9.93;58.04
39265;BME280;42646;51.910;7.724;2023-04-25T10:10:55;100714.41;;;9.77;55.84
39265;BME280;42646;51.910;7.724;2023-04-25T10:13:23;100720.97;;;9.73;56.22
39265;BME280;42646;51.910;7.724;2023-04-25T10:15:52;100714.53;;;9.76;57.63
39265;BME280;42646;51.910;7.724;2023-04-25T10:18:58;100723.97;;;9.89;59.22
39265;BME280;42646;51.910;7.724;2023-04-25T10:21:29;100718.72;;;9.99;60.16
39265;BME280;42646;51.910;7.724;2023-04-25T10:23:59;100727.06;;;10.15;60.63
39265;BME280;42646;51.910;7.724;2023-04-25T10:26:28;100733.59;;;10.32;55.75
39265;BME280;42646;51.910;7.724;2023-04-25T10:28:57;100723.78;;;10.33;52.71
39265;BME280;42646;51.910;7.724;2023-04-25T10:31:29;100735.47;;;10.21;52.30
39265;BME280;42646;51.910;7.724;2023-04-25T10:33:59;100730.69;;;10.14;53.83
39265;BME280;42646;51.910;7.724;2023-04-25T10:36:31;100744.41;;;10.20;54.94
39265;BME280;42646;51.910;7.724;2023-04-25T10:39:03;100741.81;;;10.29;55.71
39265;BME280;42646;51.910;7.724;2023-04-25T10:41:46;100747.28;;;10.37;56.00
39265;BME280;42646;51.910;7.724;2023-04-25T10:44:15;100743.38;;;10.32;55.52
39265;BME280;42646;51.910;7.724;2023-04-25T10:46:44;100745.47;;;10.28;56.79
39265;BME280;42646;51.910;7.724;2023-04-25T10:49:29;100740.41;;;10.25;56.80
39265;BME280;42646;51.910;7.724;2023-04-25T10:52:14;100750.09;;;10.26;57.16
39265;BME280;42646;51.910;7.724;2023-04-25T10:54:42;100742.41;;;10.33;55.85
39265;BME280;42646;51.910;7.724;2023-04-25T10:57:38;100749.66;;;10.31;55.36
39265;BME280;42646;51.910;7.724;2023-04-25T11:00:09;100746.16;;;10.30;54.41
39265;BME280;42646;51.910;7.724;2023-04-25T11:02:41;100747.06;;;10.20;53.86
39265;BME280;42646;51.910;7.724;2023-04-25T11:05:09;100743.44;;;10.21;55.27
39265;BME280;42646;51.910;7.724;2023-04-25T11:07:50;100743.97;;;10.14;56.91
39265;BME280;42646;51.910;7.724;2023-04-25T11:10:33;100749.84;;;10.08;56.74
39265;BME280;42646;51.910;7.724;2023-04-25T11:13:03;100751.75;;;10.06;55.97
39265;BME280;42646;51.910;7.724;2023-04-25T11:15:31;100752.59;;;10.07;56.00
39265;BME280;42646;51.910;7.724;2023-04-25T11:18:03;100759.44;;;10.00;57.23
39265;BME280;42646;51.910;7.724;2023-04-25T11:20:36;100759.25;;;9.92;58.51
39265;BME280;42646;51.910;7.724;2023-04-25T11:23:04;100762.44;;;9.85;59.43
39265;BME280;42646;51.910;7.724;2023-04-25T11:25:33;100767.63;;;9.87;58.71
39265;BME280;42646;51.910;7.724;2023-04-25T11:28:06;100769.50;;;9.75;58.59
39265;BME280;42646;51.910;7.724;2023-04-25T11:30:34;100777.41;;;9.66;59.78
39265;BME280;42646;51.910;7.724;2023-04-25T11:33:03;100773.72;;;9.57;59.62
39265;BME280;42646;51.910;7.724;2023-04-25T11:35:31;100769.09;;;9.38;59.38
39265;BME280;42646;51.910;7.724;2023-04-25T11:38:02;100781.44;;;9.28;60.46
39265;BME280;42646;51.910;7.724;2023-04-25T11:40:30;100784.34;;;9.25;61.46
39265;BME280;42646;51.910;7.724;2023-04-25T11:43:00;100783.25;;;9.27;61.21
39265;BME280;42646;51.910;7.724;2023-04-25T11:45:30;100790.75;;;9.22;61.20
39265;BME280;42646;51.910;7.724;2023-04-25T11:47:58;100787.41;;;9.20;61.06
39265;BME280;42646;51.910;7.724;2023-04-25T11:50:28;100791.25;;;9.16;61.48
39265;BME280;42646;51.910;7.724;2023-04-25T11:52:57;100791.97;;;9.18;62.13
39265;BME280;42646;51.910;7.724;2023-04-25T11:55:24;100790.38;;;9.27;60.90
39265;BME280;42646;51.910;7.724;2023-04-25T11:57:53;100794.91;;;9.15;60.50
39265;BME280;42646;51.910;7.724;2023-04-25T12:00:22;100787.16;;;9.12;60.25
39265;BME280;42646;51.910;7.724;2023-04-25T12:02:53;100785.34;;;9.13;61.17
39265;BME280;42646;51.910;7.724;2023-04-25T12:05:23;100788.13;;;9.11;60.36
39265;BME280;42646;51.910;7.724;2023-04-25T12:08:09;100796.94;;;9.12;57.33
39265;BME280;42646;51.910;7.724;2023-04-25T12:10:39;100794.19;;;9.13;55.01
39265;BME280;42646;51.910;7.724;2023-04-25T12:13:20;100797.31;;;9.07;53.90
39265;BME280;42646;51.910;7.724;2023-04-25T12:15:50;100798.38;;;9.16;54.79
39265;BME280;42646;51.910;7.724;2023-04-25T12:18:22;100799.94;;;9.18;55.03
39265;BME280;42646;51.910;7.724;2023-04-25T12:20:52;100809.09;;;9.25;55.98
39265;BME280;42646;51.910;7.724;2023-04-25T12:23:25;100804.22;;;9.30;54.63
39265;BME280;42646;51.910;7.724;2023-04-25T12:25:55;100802.56;;;9.29;55.45
39265;BME280;42646;51.910;7.724;2023-04-25T12:28:31;100796.22;;;9.42;56.44
39265;BME280;42646;51.910;7.724;2023-04-25T12:31:01;100803.91;;;9.56;56.61
39265;BME280;42646;51.910;7.724;2023-04-25T12:33:32;100813.03;;;9.63;53.41
39265;BME280;42646;51.910;7.724;2023-04-25T12:36:03;100808.81;;;9.60;53.26
39265;BME280;42646;51.910;7.724;2023-04-25T12:38:36;100813.50;;;9.68;52.88
39265;BME280;42646;51.910;7.724;2023-04-25T12:41:06;100804.03;;;9.75;54.53
39265;BME280;42646;51.910;7.724;2023-04-25T12:43:34;100800.09;;;9.90;56.09
39265;BME280;42646;51.910;7.724;2023-04-25T12:46:03;100800.97;;;10.01;58.45
39265;BME280;42646;51.910;7.724;2023-04-25T12:48:32;100813.50;;;10.10;59.14
39265;BME280;42646;51.910;7.724;2023-04-25T12:51:01;100806.88;;;10.04;59.69
39265;BME280;42646;51.910;7.724;2023-04-25T12:53:28;100813.03;;;10.05;60.50
39265;BME280;42646;51.910;7.724;2023-04-25T12:55:58;100811.97;;;10.17;60.93
39265;BME280;42646;51.910;7.724;2023-04-25T12:58:26;100806.34;;;10.31;61.15
39265;BME280;42646;51.910;7.724;2023-04-25T13:00:53;100808.22;;;10.40;61.30
39265;BME280;42646;51.910;7.724;2023-04-25T13:03:23;100810.47;;;10.45;60.57
39265;BME280;42646;51.910;7.724;2023-04-25T13:05:52;100808.81;;;10.54;61.22
39265;BME280;42646;51.910;7.724;2023-04-25T13:08:22;100811.09;;;10.58;61.45
39265;BME280;42646;51.910;7.724;2023-04-25T13:10:49;100818.38;;;10.66;60.11
39265;BME280;42646;51.910;7.724;2023-04-25T13:13:18;100808.31;;;10.69;58.23
39265;BME280;42646;51.910;7.724;2023-04-25T13:15:46;100807.94;;;10.74;59.40
39265;BME280;42646;51.910;7.724;2023-04-25T13:18:14;100805.16;;;10.85;59.60
39265;BME280;42646;51.910;7.724;2023-04-25T13:20:42;100806.97;;;10.94;60.04
39265;BME280;42646;51.910;7.724;2023-04-25T13:23:13;100806.28;;;11.02;59.62
39265;BME280;42646;51.910;7.724;2023-04-25T13:25:41;100808.41;;;11.08;60.26